createdAt,value
2018-08-04T00:00:07.021Z,55.22
2018-08-04T00:01:07.057Z,55.04
2018-08-04T00:02:07.042Z,55.22
2018-08-04T00:03:07.071Z,55.32
2018-08-04T00:04:06.957Z,55.22
2018-08-04T00:05:06.985Z,55.13
2018-08-04T00:06:06.932Z,55.42
2018-08-04T00:07:07.002Z,55.04
2018-08-04T00:08:06.890Z,54.94
2018-08-04T00:09:06.911Z,55.90
2018-08-04T00:10:06.861Z,55.52
2018-08-04T00:11:06.924Z,55.52
2018-08-04T00:12:06.832Z,55.58
2018-08-04T00:13:06.833Z,55.71
2018-08-04T00:14:06.820Z,55.58
2018-08-04T00:15:06.849Z,55.78
2018-08-04T00:16:06.766Z,55.78
2018-08-04T00:17:06.862Z,55.98
2018-08-04T00:18:06.732Z,56.16
2018-08-04T00:19:06.774Z,55.98
2018-08-04T00:20:06.701Z,56.94
2018-08-04T00:21:06.792Z,56.16
2018-08-04T00:22:06.669Z,55.98
2018-08-04T00:23:06.703Z,56.16
2018-08-04T00:24:06.638Z,56.16
2018-08-04T00:25:06.716Z,56.07
2018-08-04T00:26:06.608Z,56.26
2018-08-04T00:27:06.628Z,56.94
2018-08-04T00:28:06.575Z,56.26
2018-08-04T00:29:06.651Z,55.78
2018-08-04T00:30:06.542Z,56.07
2018-08-04T00:31:06.555Z,55.78
2018-08-04T00:32:06.505Z,56.07
2018-08-04T00:33:06.575Z,56.36
2018-08-04T00:34:06.473Z,56.16
2018-08-04T00:35:06.481Z,56.26
2018-08-04T00:36:06.443Z,56.94
2018-08-04T00:37:06.496Z,56.36
2018-08-04T00:38:06.410Z,56.65
2018-08-04T00:39:06.409Z,56.92
2018-08-04T00:40:06.392Z,57.23
2018-08-04T00:41:06.448Z,57.20
2018-08-04T00:42:06.344Z,57.43
2018-08-04T00:43:06.436Z,57.59
2018-08-04T00:44:06.309Z,57.30
2018-08-04T00:45:06.351Z,57.59
2018-08-04T00:46:06.278Z,58.37
2018-08-04T00:47:06.363Z,58.07
2018-08-04T00:48:06.248Z,57.98
2018-08-04T00:49:06.273Z,58.75
2018-08-04T00:50:06.215Z,58.85
2018-08-04T00:51:06.287Z,59.53
2018-08-04T00:52:06.182Z,58.95
2018-08-04T00:53:06.199Z,58.56
2018-08-04T00:54:06.147Z,59.43
2018-08-04T00:55:06.219Z,59.82
2018-08-04T00:56:06.113Z,60.01
2018-08-04T00:57:06.125Z,59.43
2018-08-04T00:58:06.080Z,59.53
2018-08-04T00:59:06.138Z,59.53
2018-08-04T01:00:06.049Z,60.21
2018-08-04T01:01:06.049Z,59.89
2018-08-04T01:02:06.015Z,59.21
2018-08-04T01:03:06.064Z,59.50
2018-08-04T01:04:05.978Z,59.98
2018-08-04T01:05:05.976Z,60.17
2018-08-04T01:06:05.953Z,60.47
2018-08-04T01:07:05.990Z,60.75
2018-08-04T01:08:05.915Z,60.85
2018-08-04T01:09:06.005Z,60.27
2018-08-04T01:10:05.882Z,60.47
2018-08-04T01:11:05.917Z,61.15
2018-08-04T01:12:05.847Z,60.85
2018-08-04T01:13:05.930Z,61.15
2018-08-04T01:14:05.815Z,61.24
2018-08-04T01:15:05.843Z,61.82
2018-08-04T01:16:05.775Z,61.82
2018-08-04T01:17:05.856Z,61.43
2018-08-04T01:18:05.744Z,61.63
2018-08-04T01:19:05.767Z,61.82
2018-08-04T01:20:05.709Z,62.11
2018-08-04T01:21:05.785Z,61.50
2018-08-04T01:22:05.679Z,61.79
2018-08-04T01:23:05.751Z,62.08
2018-08-04T01:24:05.641Z,62.18
2018-08-04T01:25:05.716Z,61.82
2018-08-04T01:26:05.612Z,62.76
2018-08-04T01:27:05.621Z,62.18
2018-08-04T01:28:05.578Z,62.08
2018-08-04T01:29:05.634Z,62.95
2018-08-04T01:30:05.543Z,61.98
2018-08-04T01:31:05.559Z,62.37
2018-08-04T01:32:05.508Z,62.56
2018-08-04T01:33:05.563Z,63.14
2018-08-04T01:34:05.514Z,63.63
2018-08-04T01:35:05.472Z,63.34
2018-08-04T01:36:05.442Z,63.63
2018-08-04T01:37:05.487Z,63.43
2018-08-04T01:38:05.412Z,63.53
2018-08-04T01:39:05.502Z,63.82
2018-08-04T01:40:05.372Z,63.82
2018-08-04T01:41:05.414Z,63.82
2018-08-04T01:42:05.339Z,63.73
2018-08-04T01:43:05.430Z,64.01
2018-08-04T01:44:05.300Z,64.08
2018-08-04T01:45:05.340Z,63.79
2018-08-04T01:46:05.271Z,64.01
2018-08-04T01:47:05.353Z,63.98
2018-08-04T01:48:05.239Z,64.66
2018-08-04T01:49:05.269Z,64.85
2018-08-04T01:50:05.203Z,64.66
2018-08-04T01:51:05.283Z,65.24
2018-08-04T01:52:05.168Z,64.85
2018-08-04T01:53:05.194Z,65.05
2018-08-04T01:54:05.141Z,65.24
2018-08-04T01:55:05.208Z,66.30
2018-08-04T01:56:05.101Z,65.14
2018-08-04T01:57:05.119Z,65.34
2018-08-04T01:58:05.078Z,65.78
2018-08-04T01:59:05.140Z,66.40
2018-08-04T02:00:05.033Z,65.82
2018-08-04T02:01:05.045Z,65.82
2018-08-04T02:02:04.994Z,66.30
2018-08-04T02:03:05.057Z,66.30
2018-08-04T02:04:04.960Z,65.92
2018-08-04T02:05:04.970Z,65.92
2018-08-04T02:06:04.927Z,66.40
2018-08-04T02:07:04.985Z,66.40
2018-08-04T02:08:04.890Z,66.69
2018-08-04T02:09:04.897Z,66.50
2018-08-04T02:10:04.860Z,66.46
2018-08-04T02:11:04.911Z,66.40
2018-08-04T02:12:04.832Z,66.66
2018-08-04T02:13:04.822Z,66.20
2018-08-04T02:14:04.789Z,66.50
2018-08-04T02:15:04.839Z,66.85
2018-08-04T02:16:04.752Z,66.66
2018-08-04T02:17:04.750Z,66.75
2018-08-04T02:18:04.722Z,67.24
2018-08-04T02:19:04.764Z,67.72
2018-08-04T02:20:04.685Z,67.72
2018-08-04T02:21:04.777Z,67.62
2018-08-04T02:22:04.649Z,67.52
2018-08-04T02:23:04.689Z,67.62
2018-08-04T02:24:04.697Z,67.72
2018-08-04T02:25:04.599Z,67.72
2018-08-04T02:26:04.610Z,67.91
2018-08-04T02:27:04.559Z,68.30
2018-08-04T02:28:04.633Z,68.10
2018-08-04T02:29:04.529Z,67.91
2018-08-04T02:30:04.534Z,68.30
2018-08-04T02:31:04.490Z,68.30
2018-08-04T02:32:04.547Z,68.46
2018-08-04T02:33:04.456Z,68.59
2018-08-04T02:34:04.460Z,68.65
2018-08-04T02:35:04.416Z,69.36
2018-08-04T02:36:04.475Z,69.32
2018-08-04T02:37:04.386Z,69.23
2018-08-04T02:38:04.392Z,69.42
2018-08-04T02:39:04.347Z,68.65
2018-08-04T02:40:04.401Z,69.04
2018-08-04T02:41:04.321Z,69.04
2018-08-04T02:42:04.314Z,69.42
2018-08-04T02:43:04.280Z,69.23
2018-08-04T02:44:04.327Z,68.84
2018-08-04T02:45:04.246Z,69.23
2018-08-04T02:46:04.339Z,69.23
2018-08-04T02:47:04.210Z,69.39
2018-08-04T02:48:04.253Z,69.20
2018-08-04T02:49:04.171Z,69.68
2018-08-04T02:50:04.271Z,69.29
2018-08-04T02:51:04.142Z,69.78
2018-08-04T02:52:04.179Z,69.78
2018-08-04T02:53:04.102Z,70.06
2018-08-04T02:54:04.194Z,70.64
2018-08-04T02:55:04.067Z,70.84
2018-08-04T02:56:04.107Z,71.12
2018-08-04T02:57:04.036Z,70.64
2018-08-04T02:58:04.123Z,71.22
2018-08-04T02:59:04.000Z,72.06
2018-08-04T03:00:04.038Z,71.70
2018-08-04T03:01:03.960Z,72.06
2018-08-04T03:02:04.051Z,72.19
2018-08-04T03:03:03.935Z,71.96
2018-08-04T03:04:03.964Z,72.15
2018-08-04T03:05:03.885Z,72.00
2018-08-04T03:06:03.972Z,72.09
2018-08-04T03:07:03.852Z,72.19
2018-08-04T03:08:03.889Z,72.19
2018-08-04T03:09:03.814Z,72.19
2018-08-04T03:10:03.902Z,71.80
2018-08-04T03:11:03.779Z,71.80
2018-08-04T03:12:03.811Z,71.61
2018-08-04T03:13:03.740Z,71.90
2018-08-04T03:14:03.828Z,71.90
2018-08-04T03:15:03.709Z,72.00
2018-08-04T03:16:03.740Z,71.70
2018-08-04T03:17:03.668Z,71.80
2018-08-04T03:18:03.757Z,71.42
2018-08-04T03:19:03.635Z,71.90
2018-08-04T03:20:03.665Z,71.70
2018-08-04T03:21:03.602Z,71.70
2018-08-04T03:22:03.679Z,72.28
2018-08-04T03:23:03.559Z,71.80
2018-08-04T03:24:03.600Z,72.09
2018-08-04T03:25:03.526Z,72.06
2018-08-04T03:26:03.602Z,72.15
2018-08-04T03:27:03.488Z,72.15
2018-08-04T03:28:03.516Z,72.38
2018-08-04T03:29:03.459Z,72.15
2018-08-04T03:30:03.531Z,72.54
2018-08-04T03:31:03.422Z,72.86
2018-08-04T03:32:03.453Z,72.44
2018-08-04T03:33:03.382Z,72.83
2018-08-04T03:34:03.461Z,72.86
2018-08-04T03:35:03.343Z,72.09
2018-08-04T03:36:03.418Z,71.96
2018-08-04T03:37:03.308Z,72.48
2018-08-04T03:38:03.386Z,72.63
2018-08-04T03:39:03.270Z,72.58
2018-08-04T03:40:03.293Z,72.96
2018-08-04T03:41:03.235Z,72.00
2018-08-04T03:42:03.306Z,72.44
2018-08-04T03:43:03.197Z,71.96
2018-08-04T03:44:03.218Z,71.90
2018-08-04T03:45:03.165Z,72.25
2018-08-04T03:46:03.237Z,72.77
2018-08-04T03:47:03.124Z,72.38
2018-08-04T03:48:03.144Z,72.58
2018-08-04T03:49:03.091Z,72.73
2018-08-04T03:50:03.161Z,72.96
2018-08-04T03:51:03.051Z,72.63
2018-08-04T03:52:03.073Z,73.06
2018-08-04T03:53:03.016Z,73.02
2018-08-04T03:54:03.088Z,73.11
2018-08-04T03:55:02.978Z,73.50
2018-08-04T03:56:03.001Z,72.83
2018-08-04T03:57:02.940Z,72.38
2018-08-04T03:58:03.015Z,72.34
2018-08-04T03:59:02.902Z,72.44
2018-08-04T04:00:02.924Z,73.06
2018-08-04T04:01:02.872Z,72.96
2018-08-04T04:02:02.941Z,72.77
2018-08-04T04:03:02.831Z,72.86
2018-08-04T04:04:02.859Z,72.58
2018-08-04T04:05:02.799Z,72.58
2018-08-04T04:06:02.865Z,73.15
2018-08-04T04:07:02.758Z,73.54
2018-08-04T04:08:02.776Z,72.77
2018-08-04T04:09:02.724Z,72.86
2018-08-04T04:10:02.791Z,72.67
2018-08-04T04:11:02.693Z,72.96
2018-08-04T04:12:02.703Z,72.67
2018-08-04T04:13:02.646Z,72.77
2018-08-04T04:14:02.717Z,73.06
2018-08-04T04:15:02.621Z,73.15
2018-08-04T04:16:02.636Z,72.96
2018-08-04T04:17:02.574Z,72.77
2018-08-04T04:18:02.646Z,72.77
2018-08-04T04:19:02.544Z,72.67
2018-08-04T04:20:02.556Z,73.15
2018-08-04T04:21:02.501Z,72.58
2018-08-04T04:22:02.569Z,72.86
2018-08-04T04:23:02.470Z,73.35
2018-08-04T04:24:02.480Z,72.67
2018-08-04T04:25:02.436Z,72.48
2018-08-04T04:26:02.494Z,72.48
2018-08-04T04:27:02.395Z,72.67
2018-08-04T04:28:02.407Z,72.86
2018-08-04T04:29:02.363Z,72.86
2018-08-04T04:30:02.422Z,72.48
2018-08-04T04:31:02.326Z,72.48
2018-08-04T04:32:02.332Z,72.58
2018-08-04T04:33:02.286Z,73.15
2018-08-04T04:34:02.345Z,73.25
2018-08-04T04:35:02.250Z,73.44
2018-08-04T04:36:02.256Z,73.15
2018-08-04T04:37:02.212Z,73.15
2018-08-04T04:38:02.273Z,73.15
2018-08-04T04:39:02.178Z,73.15
2018-08-04T04:40:02.187Z,73.15
2018-08-04T04:41:02.139Z,72.77
2018-08-04T04:42:02.205Z,72.96
2018-08-04T04:43:02.098Z,73.44
2018-08-04T04:44:02.111Z,73.25
2018-08-04T04:45:02.066Z,72.77
2018-08-04T04:46:02.127Z,72.86
2018-08-04T04:47:02.036Z,72.77
2018-08-04T04:48:02.034Z,73.21
2018-08-04T04:49:01.994Z,73.21
2018-08-04T04:50:02.057Z,73.02
2018-08-04T04:51:01.948Z,73.31
2018-08-04T04:52:01.964Z,73.15
2018-08-04T04:53:01.917Z,73.15
2018-08-04T04:54:01.972Z,73.06
2018-08-04T04:55:01.877Z,72.86
2018-08-04T04:56:01.894Z,72.67
2018-08-04T04:57:01.845Z,72.77
2018-08-04T04:58:01.908Z,73.54
2018-08-04T04:59:01.807Z,73.15
2018-08-04T05:00:01.817Z,73.06
2018-08-04T05:01:01.770Z,73.15
2018-08-04T05:02:01.884Z,72.96
2018-08-04T05:03:01.730Z,73.44
2018-08-04T05:04:01.747Z,72.86
2018-08-04T05:05:01.692Z,73.06
2018-08-04T05:06:01.757Z,73.35
2018-08-04T05:07:01.658Z,72.58
2018-08-04T05:08:01.672Z,72.86
2018-08-04T05:09:01.625Z,72.58
2018-08-04T05:10:01.683Z,72.00
2018-08-04T05:11:01.589Z,72.48
2018-08-04T05:12:01.594Z,72.19
2018-08-04T05:13:01.554Z,71.61
2018-08-04T05:14:01.610Z,71.80
2018-08-04T05:15:01.517Z,72.09
2018-08-04T05:16:01.532Z,72.00
2018-08-04T05:17:01.481Z,72.00
2018-08-04T05:18:01.534Z,71.61
2018-08-04T05:19:01.438Z,72.00
2018-08-04T05:20:01.445Z,72.28
2018-08-04T05:21:01.407Z,72.09
2018-08-04T05:22:01.461Z,71.80
2018-08-04T05:23:01.368Z,72.22
2018-08-04T05:24:01.371Z,71.74
2018-08-04T05:25:01.333Z,71.64
2018-08-04T05:26:01.387Z,71.74
2018-08-04T05:27:01.298Z,72.13
2018-08-04T05:28:01.299Z,71.74
2018-08-04T05:29:01.258Z,71.64
2018-08-04T05:30:01.313Z,71.74
2018-08-04T05:31:01.222Z,71.36
2018-08-04T05:32:01.238Z,71.16
2018-08-04T05:33:01.178Z,70.78
2018-08-04T05:34:01.238Z,71.16
2018-08-04T05:35:01.147Z,70.97
2018-08-04T05:36:01.151Z,70.39
2018-08-04T05:37:01.112Z,70.87
2018-08-04T05:38:01.165Z,70.78
2018-08-04T05:39:01.074Z,71.36
2018-08-04T05:40:01.079Z,70.97
2018-08-04T05:41:01.037Z,71.45
2018-08-04T05:42:01.090Z,70.97
2018-08-04T05:43:01.003Z,71.36
2018-08-04T05:44:01.004Z,71.36
2018-08-04T05:45:00.961Z,71.16
2018-08-04T05:46:01.027Z,71.16
2018-08-04T05:47:00.928Z,71.16
2018-08-04T05:48:00.946Z,71.55
2018-08-04T05:49:00.895Z,71.74
2018-08-04T05:50:01.031Z,71.45
2018-08-04T05:51:00.858Z,70.87
2018-08-04T05:52:00.858Z,71.16
2018-08-04T05:53:00.821Z,70.97
2018-08-04T05:54:00.871Z,71.16
2018-08-04T05:55:00.787Z,71.00
2018-08-04T05:56:00.784Z,70.81
2018-08-04T05:57:00.750Z,70.81
2018-08-04T05:58:00.818Z,71.20
2018-08-04T05:59:00.714Z,71.10
2018-08-04T06:00:00.811Z,70.81
2018-08-04T06:01:00.679Z,71.30
2018-08-04T06:02:00.726Z,70.90
2018-08-04T06:03:00.643Z,71.00
2018-08-04T06:04:00.739Z,70.90
2018-08-04T06:05:00.603Z,70.62
2018-08-04T06:06:00.650Z,71.10
2018-08-04T06:07:00.568Z,71.10
2018-08-04T06:08:00.665Z,70.14
2018-08-04T06:09:00.555Z,70.23
2018-08-04T06:10:00.582Z,70.23
2018-08-04T06:11:00.498Z,69.94
2018-08-04T06:12:00.599Z,70.23
2018-08-04T06:13:00.460Z,70.52
2018-08-04T06:14:00.509Z,71.10
2018-08-04T06:15:00.426Z,70.62
2018-08-04T06:16:00.516Z,71.00
2018-08-04T06:17:00.397Z,70.72
2018-08-04T06:18:00.431Z,70.62
2018-08-04T06:19:00.365Z,70.23
2018-08-04T06:20:00.448Z,70.23
2018-08-04T06:21:00.317Z,70.32
2018-08-04T06:22:00.358Z,71.00
2018-08-04T06:23:00.283Z,69.94
2018-08-04T06:24:00.369Z,69.88
2018-08-04T06:25:00.245Z,70.36
2018-08-04T06:26:00.281Z,69.49
2018-08-04T06:27:00.210Z,69.65
2018-08-04T06:28:00.295Z,69.74
2018-08-04T06:29:00.177Z,69.74
2018-08-04T06:30:00.207Z,70.32
2018-08-04T06:31:00.139Z,70.07
2018-08-04T06:32:00.216Z,71.10
2018-08-04T06:33:00.103Z,71.23
2018-08-04T06:34:00.132Z,71.14
2018-08-04T06:35:00.071Z,70.36
2018-08-04T06:36:00.154Z,69.68
2018-08-04T06:37:00.034Z,69.40
2018-08-04T06:38:00.055Z,69.59
2018-08-04T06:39:00.005Z,69.40
2018-08-04T06:40:00.070Z,69.78
2018-08-04T06:40:59.966Z,70.07
2018-08-04T06:41:59.993Z,70.17
2018-08-04T06:42:59.927Z,69.68
2018-08-04T06:44:00.000Z,69.40
2018-08-04T06:44:59.897Z,69.88
2018-08-04T06:45:59.911Z,69.68
2018-08-04T06:46:59.860Z,70.07
2018-08-04T06:47:59.923Z,69.88
2018-08-04T06:48:59.825Z,69.88
2018-08-04T06:49:59.835Z,69.88
2018-08-04T06:50:59.788Z,69.68
2018-08-04T06:51:59.849Z,69.78
2018-08-04T06:52:59.878Z,69.78
2018-08-04T06:53:59.764Z,69.40
2018-08-04T06:54:59.715Z,69.68
2018-08-04T06:55:59.774Z,70.56
2018-08-04T06:56:59.679Z,70.01
2018-08-04T06:57:59.687Z,70.40
2018-08-04T06:58:59.646Z,69.43
2018-08-04T06:59:59.702Z,69.92
2018-08-04T07:00:59.611Z,69.92
2018-08-04T07:01:59.613Z,69.82
2018-08-04T07:02:59.577Z,69.43
2018-08-04T07:03:59.629Z,69.43
2018-08-04T07:04:59.536Z,69.33
2018-08-04T07:05:59.540Z,69.43
2018-08-04T07:06:59.508Z,70.01
2018-08-04T07:07:59.555Z,69.82
2018-08-04T07:08:59.469Z,69.88
2018-08-04T07:09:59.568Z,69.62
2018-08-04T07:10:59.435Z,69.53
2018-08-04T07:11:59.481Z,69.62
2018-08-04T07:12:59.406Z,68.95
2018-08-04T07:13:59.498Z,69.14
2018-08-04T07:14:59.366Z,69.43
2018-08-04T07:15:59.409Z,68.66
2018-08-04T07:16:59.331Z,69.24
2018-08-04T07:17:59.420Z,69.24
2018-08-04T07:18:59.295Z,68.56
2018-08-04T07:19:59.331Z,68.59
2018-08-04T07:20:59.264Z,68.11
2018-08-04T07:21:59.351Z,68.49
2018-08-04T07:22:59.279Z,68.40
2018-08-04T07:23:59.259Z,68.59
2018-08-04T07:24:59.193Z,68.49
2018-08-04T07:25:59.281Z,68.49
2018-08-04T07:26:59.156Z,68.59
2018-08-04T07:27:59.180Z,68.01
2018-08-04T07:28:59.194Z,68.59
2018-08-04T07:29:59.199Z,67.82
2018-08-04T07:30:59.105Z,68.11
2018-08-04T07:31:59.109Z,68.11
2018-08-04T07:32:59.054Z,68.40
2018-08-04T07:33:59.125Z,68.21
2018-08-04T07:34:59.019Z,68.49
2018-08-04T07:35:59.038Z,68.11
2018-08-04T07:36:58.985Z,68.43
2018-08-04T07:37:59.054Z,68.33
2018-08-04T07:38:58.951Z,68.15
2018-08-04T07:39:58.969Z,68.24
2018-08-04T07:40:58.955Z,68.24
2018-08-04T07:41:58.980Z,68.05
2018-08-04T07:42:58.881Z,67.18
2018-08-04T07:43:58.892Z,67.40
2018-08-04T07:44:58.850Z,66.88
2018-08-04T07:45:58.904Z,66.98
2018-08-04T07:46:58.815Z,66.43
2018-08-04T07:47:58.813Z,66.63
2018-08-04T07:48:58.796Z,66.24
2018-08-04T07:49:58.828Z,66.24
2018-08-04T07:50:58.745Z,66.43
2018-08-04T07:51:58.854Z,66.63
2018-08-04T07:52:58.711Z,66.53
2018-08-04T07:53:58.780Z,66.43
2018-08-04T07:54:58.680Z,66.63
2018-08-04T07:55:58.770Z,65.75
2018-08-04T07:56:58.645Z,65.56
2018-08-04T07:57:58.685Z,65.47
2018-08-04T07:58:58.611Z,65.17
2018-08-04T07:59:58.702Z,65.40
2018-08-04T08:00:58.580Z,64.62
2018-08-04T08:01:58.608Z,65.20
2018-08-04T08:02:58.550Z,65.40
2018-08-04T08:03:58.622Z,64.62
2018-08-04T08:04:58.557Z,63.95
2018-08-04T08:05:58.534Z,64.14
2018-08-04T08:06:58.476Z,64.72
2018-08-04T08:07:58.547Z,63.75
2018-08-04T08:08:58.449Z,64.62
2018-08-04T08:09:58.460Z,64.72
2018-08-04T08:10:58.496Z,64.04
2018-08-04T08:11:58.476Z,63.98
2018-08-04T08:12:58.380Z,63.95
2018-08-04T08:13:58.390Z,64.65
2018-08-04T08:14:58.347Z,63.88
2018-08-04T08:15:58.328Z,63.69
2018-08-04T08:16:58.312Z,63.49
2018-08-04T08:17:58.420Z,64.17
2018-08-04T08:18:58.284Z,63.01
2018-08-04T08:19:58.325Z,62.23
2018-08-04T08:20:58.246Z,62.13
2018-08-04T08:21:58.227Z,62.13
2018-08-04T08:22:58.358Z,62.82
2018-08-04T08:23:58.206Z,63.49
2018-08-04T08:24:58.323Z,62.23
2018-08-04T08:25:58.163Z,61.78
2018-08-04T08:26:58.171Z,62.65
2018-08-04T08:27:58.128Z,62.36
2018-08-04T08:28:58.188Z,62.46
2018-08-04T08:29:58.095Z,61.10
2018-08-04T08:30:58.096Z,61.32
2018-08-04T08:31:58.064Z,61.71
2018-08-04T08:32:58.113Z,60.25
2018-08-04T08:33:58.032Z,60.55
2018-08-04T08:34:58.128Z,59.48
2018-08-04T08:35:57.997Z,59.97
2018-08-04T08:36:58.042Z,59.97
2018-08-04T08:37:57.970Z,60.16
2018-08-04T08:38:58.053Z,60.55
2018-08-04T08:39:57.936Z,59.87
2018-08-04T08:40:57.965Z,59.48
2018-08-04T08:41:57.903Z,59.41
2018-08-04T08:42:57.979Z,59.70
2018-08-04T08:43:57.869Z,59.22
2018-08-04T08:44:57.894Z,59.61
2018-08-04T08:45:57.840Z,58.54
2018-08-04T08:46:57.905Z,57.69
2018-08-04T08:47:57.806Z,57.01
2018-08-04T08:48:57.817Z,57.31
2018-08-04T08:49:57.793Z,56.72
2018-08-04T08:50:57.847Z,57.14
2018-08-04T08:51:57.740Z,56.65
2018-08-04T08:52:57.783Z,56.46
2018-08-04T08:53:57.791Z,55.03
2018-08-04T08:54:57.758Z,54.54
2018-08-04T08:55:57.681Z,54.05
2018-08-04T08:56:57.769Z,54.05
2018-08-04T08:57:57.644Z,53.79
2018-08-04T08:58:57.685Z,53.99
2018-08-04T08:59:57.617Z,53.01
2018-08-04T09:00:57.698Z,53.42
2018-08-04T09:01:57.586Z,52.94
2018-08-04T09:02:57.611Z,52.94
2018-08-04T09:03:57.556Z,53.72
2018-08-04T09:04:57.626Z,52.38
2018-08-04T09:05:57.521Z,53.85
2018-08-04T09:06:57.537Z,52.89
2018-08-04T09:07:57.491Z,52.31
2018-08-04T09:08:57.553Z,52.34
2018-08-04T09:09:57.466Z,51.17
2018-08-04T09:10:57.469Z,50.60
2018-08-04T09:11:57.429Z,48.85
2018-08-04T09:12:57.477Z,50.21
2018-08-04T09:13:57.403Z,48.10
2018-08-04T09:14:57.491Z,48.19
2018-08-04T09:15:57.367Z,48.29
2018-08-04T09:16:57.401Z,48.49
2018-08-04T09:17:57.344Z,48.02
2018-08-04T09:18:57.418Z,47.36
2018-08-04T09:19:57.310Z,46.68
2018-08-04T09:20:57.328Z,46.78
2018-08-04T09:21:57.279Z,45.31
2018-08-04T09:22:57.365Z,44.92
2018-08-04T09:23:57.253Z,44.43
2018-08-04T09:24:57.253Z,45.43
2018-08-04T09:25:57.225Z,44.94
2018-08-04T09:26:57.270Z,45.04
2018-08-04T09:27:57.191Z,43.79
2018-08-04T09:28:57.280Z,43.48
2018-08-04T09:29:57.168Z,42.79
2018-08-04T09:30:57.213Z,44.18
2018-08-04T09:31:57.135Z,43.89
2018-08-04T09:32:57.207Z,43.32
2018-08-04T09:33:57.106Z,44.62
2018-08-04T09:34:57.120Z,42.36
2018-08-04T09:35:57.093Z,42.17
2018-08-04T09:36:57.135Z,41.88
2018-08-04T09:37:57.052Z,40.82
2018-08-04T09:38:57.149Z,41.19
2018-08-04T09:39:57.026Z,40.60
2018-08-04T09:40:57.058Z,41.96
2018-08-04T09:41:57.001Z,42.35
2018-08-04T09:42:57.073Z,43.81
2018-08-04T09:43:56.963Z,43.15
2018-08-04T09:44:56.988Z,42.09
2018-08-04T09:45:56.945Z,42.31
2018-08-04T09:46:57.000Z,40.76
2018-08-04T09:47:56.913Z,41.15
2018-08-04T09:48:56.912Z,40.29
2018-08-04T09:49:56.887Z,38.92
2018-08-04T09:50:56.925Z,39.11
2018-08-04T09:51:56.863Z,39.33
2018-08-04T09:52:56.940Z,39.14
2018-08-04T09:53:56.833Z,38.84
2018-08-04T09:54:56.851Z,38.84
2018-08-04T09:55:56.812Z,37.96
2018-08-04T09:56:56.868Z,37.94
2018-08-04T09:57:56.784Z,38.72
2018-08-04T09:58:56.887Z,39.14
2018-08-04T09:59:56.756Z,39.62
2018-08-04T10:00:56.793Z,38.27
2018-08-04T10:01:56.731Z,37.98
2018-08-04T10:02:56.809Z,37.38
2018-08-04T10:03:56.715Z,37.78
2018-08-04T10:04:56.722Z,38.68
2018-08-04T10:05:56.681Z,38.48
2018-08-04T10:06:56.671Z,39.19
2018-08-04T10:07:56.741Z,38.72
2018-08-04T10:08:56.644Z,37.54
2018-08-04T10:09:56.653Z,37.07
2018-08-04T10:10:56.624Z,35.59
2018-08-04T10:11:56.613Z,35.11
2018-08-04T10:12:57.703Z,35.69
2018-08-04T10:13:56.587Z,35.99
2018-08-04T10:14:56.688Z,36.16
2018-08-04T10:15:56.561Z,35.95
2018-08-04T10:16:56.603Z,37.03
2018-08-04T10:17:56.538Z,37.72
2018-08-04T10:18:56.630Z,36.26
2018-08-04T10:19:56.516Z,36.26
2018-08-04T10:20:56.627Z,35.38
2018-08-04T10:21:56.493Z,35.47
2018-08-04T10:22:56.484Z,35.36
2018-08-04T10:23:56.550Z,35.95
2018-08-04T10:24:56.461Z,36.34
2018-08-04T10:25:56.468Z,36.05
2018-08-04T10:26:56.436Z,35.55
2018-08-04T10:27:56.475Z,36.05
2018-08-04T10:28:56.412Z,35.18
2018-08-04T10:29:56.489Z,35.28
2018-08-04T10:30:56.390Z,35.47
2018-08-04T10:31:56.435Z,35.97
2018-08-04T10:32:56.368Z,35.57
2018-08-04T10:33:56.429Z,35.88
2018-08-04T10:34:56.352Z,35.11
2018-08-04T10:35:56.455Z,34.92
2018-08-04T10:36:56.331Z,35.21
2018-08-04T10:37:56.355Z,35.33
2018-08-04T10:38:56.305Z,34.64
2018-08-04T10:39:56.355Z,35.43
2018-08-04T10:40:56.285Z,35.35
2018-08-04T10:41:56.374Z,34.75
2018-08-04T10:42:56.304Z,35.53
2018-08-04T10:43:56.288Z,35.53
2018-08-04T10:44:56.240Z,34.46
2018-08-04T10:45:56.298Z,34.27
2018-08-04T10:46:56.224Z,33.79
2018-08-04T10:47:56.312Z,33.10
2018-08-04T10:48:56.199Z,33.22
2018-08-04T10:49:56.230Z,33.22
2018-08-04T10:50:56.181Z,32.93
2018-08-04T10:51:56.233Z,32.95
2018-08-04T10:52:56.157Z,32.54
2018-08-04T10:53:56.249Z,32.82
2018-08-04T10:54:56.136Z,32.82
2018-08-04T10:55:56.159Z,32.52
2018-08-04T10:56:56.137Z,32.42
2018-08-04T10:57:56.180Z,32.44
2018-08-04T10:58:56.107Z,33.22
2018-08-04T10:59:56.116Z,33.82
2018-08-04T11:00:56.092Z,33.25
2018-08-04T11:01:56.079Z,34.15
2018-08-04T11:02:56.060Z,35.04
2018-08-04T11:03:56.131Z,32.68
2018-08-04T11:04:56.039Z,31.40
2018-08-04T11:05:56.137Z,32.09
2018-08-04T11:06:56.020Z,31.40
2018-08-04T11:07:56.014Z,31.40
2018-08-04T11:08:56.052Z,33.28
2018-08-04T11:09:55.996Z,32.59
2018-08-04T11:10:56.063Z,31.62
2018-08-04T11:11:55.975Z,31.50
2018-08-04T11:12:56.078Z,32.28
2018-08-04T11:13:55.961Z,32.28
2018-08-04T11:14:55.988Z,32.59
2018-08-04T11:15:55.937Z,33.97
2018-08-04T11:16:56.005Z,32.78
2018-08-04T11:17:55.920Z,32.60
2018-08-04T11:18:56.018Z,31.62
2018-08-04T11:19:55.903Z,30.82
2018-08-04T11:20:55.930Z,30.63
2018-08-04T11:21:55.889Z,30.51
2018-08-04T11:22:55.944Z,30.91
2018-08-04T11:23:55.872Z,30.63
2018-08-04T11:24:55.959Z,31.60
2018-08-04T11:25:55.847Z,29.72
2018-08-04T11:26:55.869Z,30.30
2018-08-04T11:27:55.834Z,30.79
2018-08-04T11:28:55.890Z,30.50
2018-08-04T11:29:55.822Z,30.69
2018-08-04T11:30:55.933Z,31.38
2018-08-04T11:31:55.802Z,31.98
2018-08-04T11:32:55.809Z,31.38
2018-08-04T11:33:55.787Z,32.37
2018-08-04T11:34:55.825Z,31.90
2018-08-04T11:35:55.769Z,31.30
2018-08-04T11:36:55.840Z,31.88
2018-08-04T11:37:55.752Z,32.57
2018-08-04T11:38:55.853Z,33.06
2018-08-04T11:39:55.735Z,32.59
2018-08-04T11:40:55.765Z,31.30
2018-08-04T11:41:55.720Z,32.88
2018-08-04T11:42:55.779Z,31.32
2018-08-04T11:43:55.699Z,30.91
2018-08-04T11:44:55.792Z,32.80
2018-08-04T11:45:55.686Z,31.62
2018-08-04T11:46:55.710Z,30.92
2018-08-04T11:47:55.686Z,33.20
2018-08-04T11:48:55.719Z,30.73
2018-08-04T11:49:55.657Z,31.02
2018-08-04T11:50:55.733Z,30.13
2018-08-04T11:51:55.640Z,30.73
2018-08-04T11:52:55.645Z,30.54
2018-08-04T11:53:55.623Z,29.93
2018-08-04T11:54:55.662Z,31.32
2018-08-04T11:55:55.606Z,31.91
2018-08-04T11:56:55.678Z,31.93
2018-08-04T11:57:55.587Z,30.94
2018-08-04T11:58:55.689Z,30.13
2018-08-04T11:59:55.576Z,31.22
2018-08-04T12:00:55.603Z,31.22
2018-08-04T12:01:55.558Z,30.92
2018-08-04T12:02:55.615Z,31.23
2018-08-04T12:03:55.539Z,31.74
2018-08-04T12:04:55.629Z,30.95
2018-08-04T12:05:55.533Z,30.76
2018-08-04T12:06:55.541Z,29.25
2018-08-04T12:07:56.516Z,28.45
2018-08-04T12:08:55.557Z,30.15
2018-08-04T12:09:55.498Z,30.54
2018-08-04T12:10:55.574Z,30.54
2018-08-04T12:11:55.483Z,30.05
2018-08-04T12:12:55.581Z,30.94
2018-08-04T12:13:55.468Z,30.85
2018-08-04T12:14:55.494Z,29.96
2018-08-04T12:15:55.452Z,28.28
2018-08-04T12:16:55.511Z,29.07
2018-08-04T12:17:55.434Z,29.27
2018-08-04T12:18:55.525Z,28.38
2018-08-04T12:19:55.421Z,27.38
2018-08-04T12:20:55.438Z,28.86
2018-08-04T12:21:55.407Z,28.47
2018-08-04T12:22:55.448Z,29.75
2018-08-04T12:23:55.396Z,29.85
2018-08-04T12:24:55.465Z,29.75
2018-08-04T12:25:55.382Z,30.04
2018-08-04T12:26:55.480Z,30.05
2018-08-04T12:27:55.364Z,30.33
2018-08-04T12:28:55.391Z,30.54
2018-08-04T12:29:55.355Z,30.54
2018-08-04T12:30:55.405Z,31.25
2018-08-04T12:31:55.335Z,30.06
2018-08-04T12:32:55.420Z,27.89
2018-08-04T12:33:55.323Z,29.16
2018-08-04T12:34:55.330Z,29.27
2018-08-04T12:35:55.306Z,29.16
2018-08-04T12:36:55.344Z,29.75
2018-08-04T12:37:55.294Z,30.92
2018-08-04T12:38:55.359Z,30.24
2018-08-04T12:39:55.279Z,30.64
2018-08-04T12:40:55.374Z,31.33
2018-08-04T12:41:55.277Z,31.82
2018-08-04T12:42:55.287Z,30.54
2018-08-04T12:43:55.253Z,31.51
2018-08-04T12:44:55.299Z,32.90
2018-08-04T12:45:55.250Z,31.93
2018-08-04T12:46:55.314Z,31.84
2018-08-04T12:47:55.224Z,31.94
2018-08-04T12:48:55.329Z,31.84
2018-08-04T12:49:55.210Z,32.06
2018-08-04T12:50:55.239Z,30.79
2018-08-04T12:51:55.194Z,30.68